Ismailia, Egypt
Current Conditions -  °F | °C
As of 6:00 PM on Sunday 21 Dec 2014 (Local Time) from HEPS Reporting Station
Scattered Clouds Scattered Clouds  
Wind Chill: 66°   Ceiling: Unl
Heat Index: 66°   Visibility: 6mi
Dew Point: 54°   Wind: 7mph
Humidity: 64%   Direction: 330°NNW
Pressure: 30.15"   Gusts: NA
Location:  30.59°N, 32.26°E
Report Text: HEPS 211600Z 33006KT 9999 SCT030 19/12 Q1021 NOSIG
Loading
Personal Weather Stations






























Interactive Weather Map New forecast layout! Learn more

10-Day Weather Forecast

Advertisements
Track Severe Weather on mobile